Time;durP1;ratioP1;P1;durP2;ratioP2;P2;SDS_P1;SDS_P2;PMS_P1;PMS_P2;Temp;Humidity;BMP_temperature;BMP_pressure;BME280_temperature;BME280_humidity;BME280_pressure;Samples;Min_cycle;Max_cycle;Signal;HPM_P1;HPM_P2
2023/03/31 00:00:42;;;;;;;;;5.25;1.50;;;;;;;;6335782;22;45453;-85
2023/03/31 00:03:09;;;;;;;;;4.25;1.00;;;;;;;;6335789;22;45347;-85
2023/03/31 00:05:37;;;;;;;;;2.25;0.00;;;;;;;;6336643;22;45628;-85
2023/03/31 00:08:02;;;;;;;;;7.00;0.75;;;;;;;;6336223;22;45285;-86
2023/03/31 00:10:28;;;;;;;;;4.00;0.67;;;;;;;;6335715;22;45402;-84
2023/03/31 00:12:54;;;;;;;;;0.50;0.50;;;;;;;;6335517;22;48172;-85
2023/03/31 00:15:19;;;;;;;;;7.50;0.25;;;;;;;;6335641;22;45160;-86
2023/03/31 00:17:46;;;;;;;;;2.50;0.00;;;;;;;;6336654;22;45136;-85
2023/03/31 00:20:11;;;;;;;;;1.25;0.00;;;;;;;;6337640;22;45276;-84
2023/03/31 00:22:37;;;;;;;;;2.00;0.00;;;;;;;;6336957;22;45271;-84
2023/03/31 00:25:03;;;;;;;;;0.75;0.75;;;;;;;;6335419;22;45612;-84
2023/03/31 00:27:28;;;;;;;;;1.00;1.00;;;;;;;;6337284;22;45220;-84
2023/03/31 00:29:53;;;;;;;;;1.00;1.00;;;;;;;;6337361;22;45267;-85
2023/03/31 00:32:18;;;;;;;;;2.75;1.50;;;;;;;;6337384;22;45387;-85
2023/03/31 00:34:45;;;;;;;;;1.00;0.00;;;;;;;;6335427;22;45551;-83
2023/03/31 00:37:14;;;;;;;;;1.75;0.50;;;;;;;;6337261;22;45301;-83
2023/03/31 00:39:40;;;;;;;;;2.00;0.75;;;;;;;;6336991;22;45393;-83
2023/03/31 00:42:07;;;;;;;;;2.00;0.00;;;;;;;;6336440;22;45514;-84
2023/03/31 00:44:34;;;;;;;;;1.50;1.00;;;;;;;;6336848;22;45340;-84
2023/03/31 00:47:21;;;;;;;;;0.50;0.50;;;;;;;;6336667;22;45285;-84
2023/03/31 00:49:48;;;;;;;;;1.00;0.75;;;;;;;;6337054;22;45516;-85
2023/03/31 00:52:23;;;;;;;;;2.00;0.00;;;;;;;;6335841;22;46739;-84
2023/03/31 00:54:53;;;;;;;;;0.00;0.00;;;;;;;;6335660;22;45470;-85
2023/03/31 00:57:19;;;;;;;;;1.00;0.00;;;;;;;;6335478;22;45325;-84
2023/03/31 00:59:47;;;;;;;;;1.50;1.00;;;;;;;;6336998;22;45380;-83
2023/03/31 01:02:13;;;;;;;;;1.50;0.75;;;;;;;;6336302;22;46448;-85
2023/03/31 01:04:40;;;;;;;;;2.25;0.25;;;;;;;;6336793;22;45667;-84
2023/03/31 01:07:15;;;;;;;;;2.00;0.00;;;;;;;;6337209;22;45330;-83
2023/03/31 01:09:46;;;;;;;;;4.00;1.00;;;;;;;;6336728;22;45205;-83
2023/03/31 01:12:11;;;;;;;;;0.25;0.25;;;;;;;;6334592;22;47391;-84
2023/03/31 01:14:37;;;;;;;;;0.50;0.00;;;;;;;;6336741;22;45369;-84
2023/03/31 01:17:03;;;;;;;;;2.33;1.00;;;;;;;;6336673;22;45294;-83
2023/03/31 01:19:38;;;;;;;;;3.50;1.00;;;;;;;;6337166;22;45565;-84
2023/03/31 01:22:22;;;;;;;;;1.00;0.00;;;;;;;;6337172;22;46538;-84
2023/03/31 01:25:07;;;;;;;;;0.00;0.00;;;;;;;;6334909;22;46021;-82
2023/03/31 01:27:32;;;;;;;;;1.50;1.00;;;;;;;;6336215;22;45208;-84
2023/03/31 01:30:06;;;;;;;;;0.67;0.00;;;;;;;;6336267;22;45224;-83
2023/03/31 01:32:50;;;;;;;;;0.75;0.00;;;;;;;;6336860;22;46137;-83
2023/03/31 01:35:28;;;;;;;;;0.25;0.25;;;;;;;;6337207;22;45620;-84
2023/03/31 01:37:59;;;;;;;;;1.25;0.00;;;;;;;;6337203;22;45282;-82
2023/03/31 01:40:33;;;;;;;;;0.00;0.00;;;;;;;;6336663;22;45478;-82
2023/03/31 01:43:01;;;;;;;;;1.25;0.00;;;;;;;;6334835;22;47039;-83
2023/03/31 01:45:26;;;;;;;;;1.75;1.00;;;;;;;;6336492;22;45279;-83
2023/03/31 01:47:57;;;;;;;;;3.00;0.00;;;;;;;;6337131;22;45149;-83
2023/03/31 01:50:23;;;;;;;;;0.75;0.00;;;;;;;;6336016;22;45401;-84
2023/03/31 01:53:07;;;;;;;;;1.00;0.00;;;;;;;;6336315;22;45332;-83
2023/03/31 01:55:52;;;;;;;;;3.00;1.00;;;;;;;;6336533;22;45630;-84
2023/03/31 01:58:23;;;;;;;;;1.00;1.00;;;;;;;;6334152;22;45382;-83
2023/03/31 02:00:55;;;;;;;;;0.25;0.25;;;;;;;;6336618;22;45472;-84
2023/03/31 02:03:23;;;;;;;;;1.00;1.00;;;;;;;;6336362;22;46615;-83
2023/03/31 02:05:52;;;;;;;;;1.25;0.00;;;;;;;;6336685;22;45418;-83
2023/03/31 02:08:27;;;;;;;;;0.00;0.00;;;;;;;;6337472;22;45418;-82
2023/03/31 02:10:52;;;;;;;;;2.50;1.50;;;;;;;;6336458;22;45466;-83
2023/03/31 02:13:20;;;;;;;;;1.50;1.00;;;;;;;;6335675;22;46628;-83
2023/03/31 02:15:46;;;;;;;;;1.50;1.00;;;;;;;;6337152;22;45387;-84
2023/03/31 02:18:16;;;;;;;;;1.00;0.50;;;;;;;;6336817;22;45428;-84
2023/03/31 02:20:41;;;;;;;;;1.50;0.75;;;;;;;;6336392;22;45310;-82
2023/03/31 02:23:08;;;;;;;;;1.75;1.75;;;;;;;;6335974;22;45956;-83
2023/03/31 02:25:38;;;;;;;;;2.00;1.00;;;;;;;;6336506;22;45469;-83
2023/03/31 02:28:08;;;;;;;;;2.50;0.50;;;;;;;;6335977;22;45263;-83
2023/03/31 02:30:43;;;;;;;;;2.00;0.00;;;;;;;;6334684;22;45259;-82
2023/03/31 02:33:08;;;;;;;;;2.75;1.50;;;;;;;;6336528;22;46256;-83
2023/03/31 02:35:35;;;;;;;;;3.33;1.67;;;;;;;;6336747;22;45213;-83
2023/03/31 02:38:01;;;;;;;;;3.00;2.00;;;;;;;;6336549;22;45223;-83
2023/03/31 02:40:27;;;;;;;;;2.00;1.00;;;;;;;;6336063;22;45333;-83
2023/03/31 02:42:52;;;;;;;;;1.00;1.00;;;;;;;;6335476;22;46885;-83
2023/03/31 02:45:36;;;;;;;;;3.00;1.00;;;;;;;;6334495;22;45259;-83
2023/03/31 02:48:01;;;;;;;;;3.50;1.00;;;;;;;;6336221;22;45223;-82
2023/03/31 02:50:32;;;;;;;;;1.75;1.75;;;;;;;;6336452;22;45517;-83
2023/03/31 02:53:10;;;;;;;;;2.00;1.50;;;;;;;;6335974;22;45452;-83
2023/03/31 02:55:48;;;;;;;;;6.25;2.25;;;;;;;;6336500;22;45624;-83
2023/03/31 02:58:28;;;;;;;;;1.00;1.00;;;;;;;;6336265;22;45342;-83
2023/03/31 03:00:53;;;;;;;;;1.00;1.00;;;;;;;;6336167;22;45271;-82
2023/03/31 03:03:35;;;;;;;;;1.00;1.00;;;;;;;;6336622;22;46055;-83
2023/03/31 03:06:19;;;;;;;;;3.00;1.25;;;;;;;;6336211;22;45653;-83
2023/03/31 03:09:05;;;;;;;;;4.00;1.00;;;;;;;;6336092;22;45292;-83
2023/03/31 03:11:42;;;;;;;;;3.00;2.00;;;;;;;;6334843;22;45475;-83
2023/03/31 03:14:20;;;;;;;;;3.50;1.00;;;;;;;;6335494;22;45598;-82
2023/03/31 03:16:47;;;;;;;;;2.00;1.00;;;;;;;;6336279;22;45259;-82
2023/03/31 03:19:17;;;;;;;;;1.75;1.25;;;;;;;;6336451;22;45273;-83
2023/03/31 03:21:44;;;;;;;;;4.00;1.00;;;;;;;;6334294;22;45761;-82
2023/03/31 03:24:10;;;;;;;;;2.25;1.75;;;;;;;;6335741;22;46153;-83
2023/03/31 03:26:35;;;;;;;;;2.75;2.00;;;;;;;;6335656;22;45279;-83
2023/03/31 03:29:00;;;;;;;;;4.00;1.00;;;;;;;;6336055;22;45314;-83
2023/03/31 03:31:26;;;;;;;;;2.67;2.00;;;;;;;;6335789;22;45220;-83
2023/03/31 03:33:51;;;;;;;;;6.00;2.00;;;;;;;;6335454;22;46428;-83
2023/03/31 03:36:17;;;;;;;;;2.00;1.50;;;;;;;;6336245;22;45202;-83
2023/03/31 03:38:42;;;;;;;;;2.00;2.00;;;;;;;;6335770;22;45413;-82
2023/03/31 03:41:09;;;;;;;;;3.75;1.00;;;;;;;;6335617;22;45336;-83
2023/03/31 03:43:34;;;;;;;;;7.50;1.00;;;;;;;;6333707;22;48080;-83
2023/03/31 03:45:59;;;;;;;;;2.00;1.00;;;;;;;;6336018;22;45288;-83
2023/03/31 03:48:25;;;;;;;;;3.75;1.50;;;;;;;;6336422;22;45256;-83
2023/03/31 03:50:52;;;;;;;;;3.50;1.00;;;;;;;;6336244;22;45308;-83
2023/03/31 03:53:17;;;;;;;;;0.25;0.25;;;;;;;;6336982;22;46214;-83
2023/03/31 03:55:43;;;;;;;;;2.00;1.67;;;;;;;;6337576;22;45295;-83
2023/03/31 03:58:09;;;;;;;;;4.00;1.00;;;;;;;;6337161;22;45213;-83
2023/03/31 04:00:34;;;;;;;;;2.00;0.50;;;;;;;;6337415;22;45439;-83
2023/03/31 04:03:00;;;;;;;;;4.00;1.50;;;;;;;;6337343;22;45878;-83
2023/03/31 04:05:25;;;;;;;;;4.50;1.00;;;;;;;;6335295;22;45399;-83
2023/03/31 04:07:51;;;;;;;;;0.00;0.00;;;;;;;;6337540;22;45204;-83
2023/03/31 04:10:16;;;;;;;;;2.00;1.00;;;;;;;;6337034;22;45502;-82
2023/03/31 04:12:41;;;;;;;;;4.67;1.00;;;;;;;;6337213;22;46199;-84
2023/03/31 04:15:06;;;;;;;;;3.33;1.33;;;;;;;;6337244;22;45268;-83
2023/03/31 04:17:33;;;;;;;;;3.00;1.00;;;;;;;;6337315;22;45162;-83
2023/03/31 04:20:04;;;;;;;;;2.25;1.25;;;;;;;;6337460;22;45263;-83
2023/03/31 04:22:34;;;;;;;;;2.00;1.75;;;;;;;;6337283;22;46548;-84
2023/03/31 04:25:00;;;;;;;;;2.00;1.25;;;;;;;;6337078;22;45663;-83
2023/03/31 04:27:29;;;;;;;;;2.25;1.00;;;;;;;;6336873;22;45335;-83
2023/03/31 04:29:55;;;;;;;;;1.00;1.00;;;;;;;;6337007;22;45554;-84
2023/03/31 04:32:20;;;;;;;;;2.00;2.00;;;;;;;;6337208;22;46435;-83
2023/03/31 04:34:46;;;;;;;;;1.50;1.00;;;;;;;;6336435;22;45240;-84
2023/03/31 04:37:11;;;;;;;;;1.75;1.75;;;;;;;;6336886;22;45181;-84
2023/03/31 04:39:36;;;;;;;;;5.67;3.33;;;;;;;;6337132;22;45195;-84
2023/03/31 04:42:01;;;;;;;;;5.00;1.67;;;;;;;;6337152;22;45156;-85
2023/03/31 04:44:27;;;;;;;;;7.00;2.00;;;;;;;;6337916;22;45158;-86
2023/03/31 04:46:52;;;;;;;;;6.75;1.25;;;;;;;;6335450;22;45171;-86
2023/03/31 04:49:18;;;;;;;;;4.50;1.75;;;;;;;;6335794;22;45402;-86
2023/03/31 04:51:43;;;;;;;;;6.00;1.00;;;;;;;;6337271;22;46373;-86
2023/03/31 04:54:09;;;;;;;;;7.25;1.75;;;;;;;;6336629;22;45267;-87
2023/03/31 04:56:34;;;;;;;;;4.50;2.00;;;;;;;;6335986;22;45187;-86
2023/03/31 04:58:59;;;;;;;;;7.00;3.00;;;;;;;;6335271;22;45133;-85
2023/03/31 05:01:24;;;;;;;;;7.00;1.33;;;;;;;;6337936;22;45389;-85
2023/03/31 05:03:50;;;;;;;;;7.67;3.00;;;;;;;;6337177;22;45265;-86
2023/03/31 05:06:15;;;;;;;;;2.00;1.00;;;;;;;;6337157;22;45269;-83
2023/03/31 05:08:41;;;;;;;;;3.25;1.25;;;;;;;;6336818;22;45655;-83
2023/03/31 05:11:06;;;;;;;;;11.75;2.00;;;;;;;;6337148;22;46092;-84
2023/03/31 05:13:31;;;;;;;;;6.00;2.00;;;;;;;;6336381;22;45299;-84
2023/03/31 05:15:57;;;;;;;;;3.33;0.33;;;;;;;;6336713;22;45249;-84
2023/03/31 05:18:22;;;;;;;;;6.25;2.75;;;;;;;;6335155;22;45463;-84
2023/03/31 05:20:47;;;;;;;;;2.00;1.00;;;;;;;;6336669;22;46242;-85
2023/03/31 05:23:13;;;;;;;;;5.33;1.00;;;;;;;;6335903;22;45256;-84
2023/03/31 05:25:38;;;;;;;;;3.50;1.25;;;;;;;;6337210;22;45272;-83
2023/03/31 05:28:03;;;;;;;;;2.00;1.33;;;;;;;;6337289;22;45252;-83
2023/03/31 05:30:29;;;;;;;;;6.25;2.00;;;;;;;;6336288;22;45446;-86
2023/03/31 05:32:54;;;;;;;;;1.75;1.25;;;;;;;;6336331;22;45285;-84
2023/03/31 05:35:20;;;;;;;;;5.75;1.50;;;;;;;;6336757;22;45186;-82
2023/03/31 05:37:45;;;;;;;;;2.25;1.50;;;;;;;;6335943;22;45436;-79
2023/03/31 05:40:10;;;;;;;;;8.33;2.00;;;;;;;;6336515;22;46304;-80
2023/03/31 05:42:36;;;;;;;;;7.00;2.00;;;;;;;;6336365;22;45302;-80
2023/03/31 05:45:01;;;;;;;;;2.00;1.75;;;;;;;;6336713;22;45288;-80
2023/03/31 05:47:27;;;;;;;;;2.25;1.50;;;;;;;;6336774;22;45433;-79
2023/03/31 05:49:52;;;;;;;;;8.25;3.00;;;;;;;;6336204;22;46813;-81
2023/03/31 05:52:17;;;;;;;;;3.00;1.00;;;;;;;;6335356;22;45350;-81
2023/03/31 05:54:43;;;;;;;;;2.75;2.00;;;;;;;;6335799;22;45254;-80
2023/03/31 05:57:08;;;;;;;;;4.00;1.50;;;;;;;;6334872;22;45418;-81
2023/03/31 05:59:35;;;;;;;;;1.75;1.50;;;;;;;;6336884;22;45811;-80
2023/03/31 06:02:00;;;;;;;;;7.00;2.75;;;;;;;;6336119;22;45664;-79
2023/03/31 06:04:25;;;;;;;;;3.00;2.00;;;;;;;;6334867;22;45296;-77
2023/03/31 06:06:50;;;;;;;;;7.00;1.67;;;;;;;;6335336;22;45300;-79
2023/03/31 06:09:16;;;;;;;;;2.67;2.00;;;;;;;;6336084;22;46208;-79
2023/03/31 06:11:42;;;;;;;;;2.50;2.00;;;;;;;;6335886;22;45408;-79
2023/03/31 06:14:07;;;;;;;;;1.50;1.00;;;;;;;;6335691;22;45821;-79
2023/03/31 06:16:32;;;;;;;;;8.00;1.00;;;;;;;;6336012;22;45398;-79
2023/03/31 06:18:57;;;;;;;;;3.00;0.67;;;;;;;;6335417;22;45384;-79
2023/03/31 06:21:22;;;;;;;;;2.67;2.00;;;;;;;;6335336;22;45335;-79
2023/03/31 06:23:48;;;;;;;;;4.00;2.00;;;;;;;;6336702;22;45337;-79
2023/03/31 06:26:14;;;;;;;;;4.00;1.67;;;;;;;;6336817;22;45237;-79
2023/03/31 06:28:40;;;;;;;;;4.25;1.75;;;;;;;;6336040;22;46419;-79
2023/03/31 06:31:06;;;;;;;;;3.50;1.00;;;;;;;;6335825;22;45206;-79
2023/03/31 06:33:33;;;;;;;;;3.00;2.00;;;;;;;;6335768;22;45237;-80
2023/03/31 06:36:00;;;;;;;;;4.50;0.00;;;;;;;;6335954;22;45347;-78
2023/03/31 06:38:26;;;;;;;;;2.00;1.25;;;;;;;;6334829;22;45333;-79
2023/03/31 06:40:51;;;;;;;;;3.25;2.00;;;;;;;;6334978;22;45220;-80
2023/03/31 06:43:16;;;;;;;;;3.67;2.00;;;;;;;;6336103;22;45512;-81
2023/03/31 06:45:41;;;;;;;;;2.00;1.00;;;;;;;;6336200;22;45182;-82
2023/03/31 06:48:06;;;;;;;;;2.00;2.00;;;;;;;;6335672;22;45489;-80
2023/03/31 06:50:32;;;;;;;;;3.00;2.00;;;;;;;;6334778;22;45460;-81
2023/03/31 06:52:57;;;;;;;;;1.33;1.33;;;;;;;;6335731;22;45354;-80
2023/03/31 06:55:22;;;;;;;;;3.50;2.75;;;;;;;;6336257;22;45345;-78
2023/03/31 06:57:48;;;;;;;;;3.00;1.00;;;;;;;;6335630;22;46276;-81
2023/03/31 07:00:13;;;;;;;;;6.00;2.00;;;;;;;;6335770;22;45414;-81
2023/03/31 07:02:38;;;;;;;;;4.00;1.25;;;;;;;;6336449;22;45402;-80
2023/03/31 07:05:04;;;;;;;;;5.33;1.67;;;;;;;;6335766;22;45274;-79
2023/03/31 07:07:32;;;;;;;;;3.00;1.25;;;;;;;;6334055;22;45401;-79
2023/03/31 07:09:57;;;;;;;;;7.25;1.00;;;;;;;;6334556;22;45708;-80
2023/03/31 07:12:23;;;;;;;;;7.00;1.00;;;;;;;;6335667;22;45290;-80
2023/03/31 07:14:48;;;;;;;;;5.00;1.75;;;;;;;;6333487;22;45429;-80
2023/03/31 07:17:13;;;;;;;;;3.00;1.50;;;;;;;;6334356;22;45220;-79
2023/03/31 07:19:40;;;;;;;;;2.00;0.00;;;;;;;;6333485;22;45373;-80
2023/03/31 07:22:06;;;;;;;;;2.75;1.00;;;;;;;;6335173;22;45389;-80
2023/03/31 07:24:31;;;;;;;;;0.25;0.25;;;;;;;;6335482;22;45460;-81
2023/03/31 07:26:56;;;;;;;;;4.75;1.50;;;;;;;;6335454;22;46227;-79
2023/03/31 07:29:22;;;;;;;;;1.67;1.00;;;;;;;;6335084;22;45347;-80
2023/03/31 07:31:47;;;;;;;;;2.00;2.00;;;;;;;;6333270;22;45349;-80
2023/03/31 07:34:12;;;;;;;;;3.75;1.50;;;;;;;;6335875;22;45508;-81
2023/03/31 07:36:37;;;;;;;;;7.00;1.00;;;;;;;;6334810;22;46191;-80
2023/03/31 07:39:04;;;;;;;;;2.00;0.00;;;;;;;;6336069;22;45318;-78
2023/03/31 07:41:29;;;;;;;;;0.50;0.00;;;;;;;;6335881;22;45327;-80
2023/03/31 07:43:55;;;;;;;;;9.00;4.00;;;;;;;;6335722;22;45465;-80
2023/03/31 07:46:24;;;;;;;;;3.67;1.00;;;;;;;;6335138;22;47142;-80
2023/03/31 07:48:50;;;;;;;;;0.00;0.00;;;;;;;;6335565;22;45298;-80
2023/03/31 07:51:16;;;;;;;;;2.75;1.00;;;;;;;;6336198;22;45298;-80
2023/03/31 07:53:42;;;;;;;;;3.00;1.25;;;;;;;;6336396;22;45319;-80
2023/03/31 07:56:07;;;;;;;;;1.00;1.00;;;;;;;;6335893;22;46478;-80
2023/03/31 07:58:33;;;;;;;;;5.00;1.00;;;;;;;;6335110;22;45310;-80
2023/03/31 08:01:00;;;;;;;;;2.00;0.00;;;;;;;;6335738;22;45321;-81
2023/03/31 08:03:26;;;;;;;;;2.75;0.00;;;;;;;;6335978;22;45424;-81
2023/03/31 08:05:51;;;;;;;;;4.00;1.00;;;;;;;;6336509;22;45326;-80
2023/03/31 08:08:17;;;;;;;;;2.25;0.00;;;;;;;;6336645;22;45344;-80
2023/03/31 08:10:42;;;;;;;;;3.67;1.00;;;;;;;;6336591;22;45173;-82
2023/03/31 08:13:07;;;;;;;;;2.33;1.67;;;;;;;;6336792;22;45225;-81
2023/03/31 08:15:32;;;;;;;;;6.67;2.00;;;;;;;;6335170;22;45454;-81
2023/03/31 08:17:57;;;;;;;;;2.33;1.00;;;;;;;;6335933;22;45716;-80
2023/03/31 08:20:23;;;;;;;;;4.00;1.00;;;;;;;;6336114;22;45463;-81
2023/03/31 08:22:48;;;;;;;;;4.75;1.00;;;;;;;;6336396;22;45457;-83
2023/03/31 08:25:13;;;;;;;;;0.00;0.00;;;;;;;;6334195;22;47017;-82
2023/03/31 08:27:39;;;;;;;;;1.00;0.00;;;;;;;;6335439;22;45275;-81
2023/03/31 08:30:05;;;;;;;;;3.00;2.00;;;;;;;;6336120;22;45294;-80
2023/03/31 08:32:34;;;;;;;;;3.50;2.00;;;;;;;;6334430;22;45291;-79
2023/03/31 08:35:00;;;;;;;;;1.25;1.00;;;;;;;;6328968;22;45641;-79
2023/03/31 08:37:27;;;;;;;;;0.00;0.00;;;;;;;;6332925;22;45374;-80
2023/03/31 08:39:53;;;;;;;;;1.50;0.75;;;;;;;;6333930;22;45510;-80
2023/03/31 08:42:28;;;;;;;;;3.50;2.00;;;;;;;;6335876;22;45458;-81
2023/03/31 08:44:53;;;;;;;;;2.00;0.00;;;;;;;;6334224;22;45607;-80
2023/03/31 08:47:21;;;;;;;;;7.67;0.33;;;;;;;;6333865;22;45433;-80
2023/03/31 08:49:52;;;;;;;;;2.00;1.00;;;;;;;;6336411;22;45325;-81
2023/03/31 08:52:25;;;;;;;;;2.00;0.75;;;;;;;;6335981;22;45559;-81
2023/03/31 08:54:53;;;;;;;;;1.00;1.00;;;;;;;;6333961;22;46486;-81
2023/03/31 08:57:29;;;;;;;;;1.50;1.00;;;;;;;;6335515;22;45741;-80
2023/03/31 08:59:57;;;;;;;;;4.50;0.50;;;;;;;;6335211;22;45327;-81
2023/03/31 09:02:33;;;;;;;;;1.00;0.00;;;;;;;;6334051;22;45264;-82
2023/03/31 09:05:17;;;;;;;;;2.75;0.00;;;;;;;;6331736;22;46375;-82
2023/03/31 09:07:55;;;;;;;;;0.75;0.25;;;;;;;;6335798;22;45326;-82
2023/03/31 09:10:29;;;;;;;;;2.00;0.00;;;;;;;;6333972;22;45353;-82
2023/03/31 09:12:55;;;;;;;;;3.75;1.25;;;;;;;;6335662;22;45341;-81
2023/03/31 09:15:39;;;;;;;;;0.67;0.67;;;;;;;;6334688;22;46059;-83
2023/03/31 09:18:18;;;;;;;;;1.00;0.00;;;;;;;;6335288;22;45364;-84
2023/03/31 09:20:47;;;;;;;;;3.25;1.00;;;;;;;;6335358;22;45319;-81
2023/03/31 09:23:31;;;;;;;;;3.00;1.00;;;;;;;;6335647;22;45362;-82
2023/03/31 09:25:56;;;;;;;;;4.75;1.00;;;;;;;;6335183;22;46662;-81
2023/03/31 09:28:29;;;;;;;;;2.75;0.00;;;;;;;;6334750;22;45290;-82
2023/03/31 09:30:55;;;;;;;;;3.25;0.50;;;;;;;;6335841;22;45355;-82
2023/03/31 09:33:30;;;;;;;;;0.00;0.00;;;;;;;;6335999;22;45373;-82
2023/03/31 09:35:57;;;;;;;;;1.75;1.00;;;;;;;;6335601;22;46143;-82
2023/03/31 09:38:22;;;;;;;;;3.75;1.00;;;;;;;;6334723;22;45700;-84
2023/03/31 09:40:47;;;;;;;;;6.33;0.00;;;;;;;;6334038;22;45293;-83
2023/03/31 09:43:15;;;;;;;;;1.00;1.00;;;;;;;;6334180;22;45602;-82
2023/03/31 09:45:40;;;;;;;;;2.50;0.75;;;;;;;;6333771;22;47300;-82
2023/03/31 09:48:13;;;;;;;;;2.33;0.33;;;;;;;;6334442;22;45242;-82
2023/03/31 09:50:43;;;;;;;;;2.00;1.00;;;;;;;;6335073;22;45417;-82
2023/03/31 09:53:14;;;;;;;;;1.75;0.75;;;;;;;;6335900;22;45334;-82
2023/03/31 09:55:44;;;;;;;;;0.00;0.00;;;;;;;;6335764;22;45605;-83
2023/03/31 09:58:14;;;;;;;;;2.00;2.00;;;;;;;;6335268;22;45287;-82
2023/03/31 10:00:41;;;;;;;;;2.00;0.00;;;;;;;;6336556;22;45294;-83
2023/03/31 10:03:06;;;;;;;;;4.00;0.00;;;;;;;;6335923;22;45522;-84
2023/03/31 10:05:31;;;;;;;;;3.75;0.00;;;;;;;;6336029;22;45270;-84
2023/03/31 10:08:15;;;;;;;;;0.50;0.00;;;;;;;;6335366;22;45229;-83
2023/03/31 10:11:05;;;;;;;;;2.00;0.75;;;;;;;;6335542;22;45304;-88
2023/03/31 10:14:09;;;;;;;;;2.25;1.00;;;;;;;;6334931;22;45584;-82
2023/03/31 10:16:46;;;;;;;;;2.00;1.00;;;;;;;;6208442;22;45432;-82
2023/03/31 10:19:17;;;;;;;;;2.25;1.00;;;;;;;;6207670;22;45551;-81
2023/03/31 10:21:44;;;;;;;;;2.25;1.00;;;;;;;;6206067;22;45678;-82
2023/03/31 10:24:10;;;;;;;;;5.75;0.50;;;;;;;;6207689;22;45368;-84
2023/03/31 10:26:36;;;;;;;;;4.25;0.25;;;;;;;;6207476;22;47063;-82
2023/03/31 10:29:01;;;;;;;;;3.00;0.00;;;;;;;;6207813;22;45428;-82
2023/03/31 10:31:34;;;;;;;;;0.00;0.00;;;;;;;;6208677;22;45519;-82
2023/03/31 10:34:04;;;;;;;;;2.25;0.75;;;;;;;;6207986;22;45305;-83
2023/03/31 10:36:30;;;;;;;;;2.50;0.25;;;;;;;;6207740;22;45331;-82
2023/03/31 10:38:56;;;;;;;;;0.00;0.00;;;;;;;;6207374;22;45602;-81
2023/03/31 10:41:24;;;;;;;;;0.00;0.00;;;;;;;;6208310;22;45341;-82
2023/03/31 10:43:50;;;;;;;;;0.00;0.00;;;;;;;;6208187;22;45450;-83
2023/03/31 10:46:16;;;;;;;;;1.00;0.00;;;;;;;;6215575;22;45512;-83
2023/03/31 10:48:43;;;;;;;;;1.00;0.00;;;;;;;;6334857;22;45399;-82
2023/03/31 10:51:11;;;;;;;;;3.00;0.00;;;;;;;;6334738;22;45331;-81
2023/03/31 10:53:46;;;;;;;;;0.00;0.00;;;;;;;;6335159;22;45267;-82
2023/03/31 10:56:22;;;;;;;;;3.00;0.00;;;;;;;;6334436;22;46316;-81
2023/03/31 10:58:56;;;;;;;;;2.25;1.00;;;;;;;;6332881;22;45919;-81
2023/03/31 11:01:21;;;;;;;;;1.00;0.25;;;;;;;;6334686;22;45343;-81
2023/03/31 11:04:09;;;;;;;;;0.00;0.00;;;;;;;;6334995;22;45500;-82
2023/03/31 11:06:47;;;;;;;;;4.00;1.00;;;;;;;;6207228;22;45804;-81
2023/03/31 11:09:27;;;;;;;;;0.00;0.00;;;;;;;;6207435;22;45661;-81
2023/03/31 11:11:59;;;;;;;;;1.00;0.00;;;;;;;;6208293;22;45302;-81
2023/03/31 11:14:51;;;;;;;;;1.00;0.00;;;;;;;;6207867;22;45428;-82
2023/03/31 11:17:25;;;;;;;;;0.25;0.00;;;;;;;;6116204;23;45604;-81
2023/03/31 11:20:05;;;;;;;;;3.25;0.00;;;;;;;;6117405;23;45714;-82
2023/03/31 11:22:36;;;;;;;;;1.00;0.00;;;;;;;;6116866;23;45369;-82
2023/03/31 11:25:20;;;;;;;;;1.75;0.75;;;;;;;;6113162;23;45491;-82
2023/03/31 11:28:04;;;;;;;;;0.75;0.75;;;;;;;;6088819;23;47041;-82
2023/03/31 11:30:29;;;;;;;;;1.00;0.00;;;;;;;;6103901;23;45563;-80
2023/03/31 11:33:00;;;;;;;;;0.00;0.00;;;;;;;;6116514;23;45702;-81
2023/03/31 11:35:28;;;;;;;;;1.75;0.00;;;;;;;;6117857;23;45381;-81
2023/03/31 11:37:57;;;;;;;;;1.50;0.00;;;;;;;;6118657;23;45515;-83
2023/03/31 11:40:22;;;;;;;;;41.75;24.50;;;;;;;;6117358;23;45841;-86
2023/03/31 11:42:50;;;;;;;;;1.00;1.00;;;;;;;;6128530;22;45433;-84
2023/03/31 11:45:22;;;;;;;;;2.00;1.00;;;;;;;;6205115;22;45355;-82
2023/03/31 11:47:50;;;;;;;;;3.50;0.75;;;;;;;;6207959;22;45423;-86
2023/03/31 11:50:19;;;;;;;;;2.00;0.00;;;;;;;;6207545;22;45328;-81
2023/03/31 11:52:52;;;;;;;;;2.00;0.75;;;;;;;;6207451;22;45387;-81
2023/03/31 11:55:20;;;;;;;;;2.00;0.75;;;;;;;;6333651;22;45454;-82
2023/03/31 11:57:53;;;;;;;;;0.00;0.00;;;;;;;;6328754;22;46308;-82
2023/03/31 12:00:24;;;;;;;;;2.00;0.00;;;;;;;;6334341;22;45627;-82
2023/03/31 12:02:49;;;;;;;;;0.00;0.00;;;;;;;;6333993;22;45313;-82
2023/03/31 12:05:15;;;;;;;;;0.00;0.00;;;;;;;;6334811;22;45342;-83
2023/03/31 12:07:45;;;;;;;;;0.00;0.00;;;;;;;;6332175;22;48221;-82
2023/03/31 12:10:17;;;;;;;;;1.00;0.00;;;;;;;;6334609;22;45323;-83
2023/03/31 12:12:50;;;;;;;;;0.00;0.00;;;;;;;;6335475;22;45623;-83
2023/03/31 12:15:15;;;;;;;;;0.00;0.00;;;;;;;;6336074;22;45425;-83
2023/03/31 12:17:43;;;;;;;;;1.33;0.00;;;;;;;;6336780;22;45445;-84
2023/03/31 12:20:16;;;;;;;;;1.00;1.00;;;;;;;;6335765;22;45378;-83
2023/03/31 12:22:46;;;;;;;;;2.00;0.00;;;;;;;;6336723;22;45266;-85
2023/03/31 12:25:13;;;;;;;;;0.00;0.00;;;;;;;;6334893;22;45471;-85
2023/03/31 12:27:40;;;;;;;;;0.00;0.00;;;;;;;;6333524;22;45869;-85
2023/03/31 12:30:11;;;;;;;;;1.50;0.25;;;;;;;;6333486;22;45695;-86
2023/03/31 12:32:39;;;;;;;;;1.50;0.00;;;;;;;;6336847;22;45391;-85
2023/03/31 12:35:14;;;;;;;;;1.00;0.00;;;;;;;;6336704;22;45442;-84
2023/03/31 12:37:39;;;;;;;;;0.00;0.00;;;;;;;;6336106;22;47578;-86
2023/03/31 12:40:33;;;;;;;;;1.33;0.00;;;;;;;;6336319;22;45456;-84
2023/03/31 12:43:10;;;;;;;;;0.50;0.00;;;;;;;;6308261;22;45281;-83
2023/03/31 12:45:38;;;;;;;;;0.50;0.00;;;;;;;;6336083;22;45406;-83
2023/03/31 12:48:26;;;;;;;;;0.75;0.00;;;;;;;;6334118;22;45536;-83
2023/03/31 12:50:52;;;;;;;;;1.75;0.00;;;;;;;;6332378;22;45619;-84
2023/03/31 12:53:23;;;;;;;;;0.67;0.67;;;;;;;;6331205;22;45299;-83
2023/03/31 12:55:50;;;;;;;;;0.00;0.00;;;;;;;;6335485;22;45482;-83
2023/03/31 12:58:28;;;;;;;;;3.50;0.00;;;;;;;;6335799;22;45460;-84
2023/03/31 13:01:00;;;;;;;;;0.50;0.00;;;;;;;;6335906;22;45299;-83
2023/03/31 13:03:35;;;;;;;;;0.75;0.00;;;;;;;;6333438;22;45915;-84
2023/03/31 13:06:01;;;;;;;;;0.00;0.00;;;;;;;;6331873;22;45431;-82
2023/03/31 13:08:45;;;;;;;;;1.00;0.00;;;;;;;;6336261;22;45476;-85
2023/03/31 13:11:11;;;;;;;;;1.00;0.00;;;;;;;;6335259;22;45499;-84
2023/03/31 13:13:39;;;;;;;;;4.00;0.00;;;;;;;;6335539;22;45355;-82
2023/03/31 13:16:05;;;;;;;;;0.00;0.00;;;;;;;;6328286;22;45478;-82
2023/03/31 13:18:32;;;;;;;;;0.00;0.00;;;;;;;;6334096;22;46382;-85
2023/03/31 13:21:04;;;;;;;;;0.00;0.00;;;;;;;;6335770;22;45216;-83
2023/03/31 13:23:43;;;;;;;;;1.00;0.00;;;;;;;;6335622;22;45325;-83
2023/03/31 13:26:29;;;;;;;;;0.00;0.00;;;;;;;;6335346;22;45308;-84
2023/03/31 13:29:17;;;;;;;;;0.00;0.00;;;;;;;;6336074;22;46267;-84
2023/03/31 13:32:01;;;;;;;;;0.50;0.00;;;;;;;;6318355;22;45701;-83
2023/03/31 13:34:45;;;;;;;;;1.25;0.00;;;;;;;;6334801;22;45358;-82
2023/03/31 13:37:16;;;;;;;;;1.00;0.00;;;;;;;;6335163;22;45726;-82
2023/03/31 13:40:06;;;;;;;;;1.00;0.00;;;;;;;;6335421;22;45730;-82
2023/03/31 13:42:50;;;;;;;;;1.50;0.00;;;;;;;;6331330;22;45735;-83
2023/03/31 13:45:18;;;;;;;;;1.75;0.00;;;;;;;;6332859;22;45485;-86
2023/03/31 13:48:03;;;;;;;;;0.00;0.00;;;;;;;;6334276;22;45430;-86
2023/03/31 13:50:40;;;;;;;;;1.00;0.00;;;;;;;;6206131;22;46488;-84
2023/03/31 13:53:05;;;;;;;;;0.00;0.00;;;;;;;;6208461;22;45856;-83
2023/03/31 13:55:33;;;;;;;;;1.00;0.00;;;;;;;;6208555;22;45305;-85
2023/03/31 13:58:01;;;;;;;;;0.00;0.00;;;;;;;;6183307;22;45674;-85
2023/03/31 14:00:36;;;;;;;;;0.00;0.00;;;;;;;;6207913;22;46284;-82
2023/03/31 14:03:20;;;;;;;;;0.00;0.00;;;;;;;;6209220;22;45319;-84
2023/03/31 14:06:01;;;;;;;;;1.00;0.00;;;;;;;;6208291;22;45356;-85
2023/03/31 14:08:38;;;;;;;;;0.00;0.00;;;;;;;;6184660;22;45316;-86
2023/03/31 14:11:22;;;;;;;;;2.00;0.00;;;;;;;;6207644;22;46211;-83
2023/03/31 14:14:03;;;;;;;;;2.50;0.00;;;;;;;;6182271;22;45352;-82
2023/03/31 14:16:30;;;;;;;;;3.00;0.00;;;;;;;;6208101;22;45410;-82
2023/03/31 14:19:05;;;;;;;;;0.00;0.00;;;;;;;;6207703;22;45451;-83
2023/03/31 14:21:36;;;;;;;;;29.00;21.50;;;;;;;;6206716;22;46817;-84
2023/03/31 14:24:13;;;;;;;;;0.00;0.00;;;;;;;;6207950;22;45640;-85
2023/03/31 14:26:47;;;;;;;;;0.00;0.00;;;;;;;;6220838;22;45382;-86
2023/03/31 14:29:17;;;;;;;;;0.00;0.00;;;;;;;;6334315;22;45502;-86
2023/03/31 14:32:00;;;;;;;;;0.00;0.00;;;;;;;;6334049;22;46356;-87
2023/03/31 14:34:44;;;;;;;;;0.00;0.00;;;;;;;;6333822;22;45454;-84
2023/03/31 14:37:12;;;;;;;;;0.00;0.00;;;;;;;;6336294;22;45319;-84
2023/03/31 14:39:40;;;;;;;;;0.00;0.00;;;;;;;;6334251;22;45277;-84
2023/03/31 14:42:16;;;;;;;;;0.25;0.00;;;;;;;;6333905;22;45379;-84
2023/03/31 14:44:43;;;;;;;;;2.50;0.00;;;;;;;;6332615;22;45616;-84
2023/03/31 14:47:32;;;;;;;;;0.75;0.00;;;;;;;;6333538;22;45391;-85
2023/03/31 14:49:58;;;;;;;;;0.00;0.00;;;;;;;;6315763;22;45324;-84
2023/03/31 14:52:24;;;;;;;;;0.00;0.00;;;;;;;;6333654;22;46443;-85
2023/03/31 14:54:51;;;;;;;;;0.00;0.00;;;;;;;;6334638;22;45388;-86
2023/03/31 14:57:19;;;;;;;;;0.00;0.00;;;;;;;;6333705;22;45369;-84